Time;durP1;ratioP1;P1;durP2;ratioP2;P2;SDS_P1;SDS_P2;PMS_P1;PMS_P2;Temp;Humidity;BMP_temperature;BMP_pressure;BME280_temperature;BME280_humidity;BME280_pressure;Samples;Min_cycle;Max_cycle;Signal;HPM_P1;HPM_P2
2023/09/23 00:00:18;;;;;;;11.93;7.18;;;18.60;83.70;;;;;;5015697;28;20097;-70
2023/09/23 00:02:44;;;;;;;12.52;6.65;;;18.60;83.70;;;;;;5015356;28;20040;-69
2023/09/23 00:05:11;;;;;;;10.00;6.18;;;18.60;83.70;;;;;;5015296;28;20010;-69
2023/09/23 00:07:39;;;;;;;10.93;6.55;;;18.50;83.60;;;;;;5015304;28;20038;-69
2023/09/23 00:10:09;;;;;;;13.93;7.25;;;18.50;83.70;;;;;;5015330;28;20045;-69
2023/09/23 00:12:36;;;;;;;14.55;8.00;;;18.40;83.70;;;;;;5015339;28;20095;-69
2023/09/23 00:15:03;;;;;;;12.07;7.78;;;18.40;83.70;;;;;;5014958;28;20120;-69
2023/09/23 00:17:29;;;;;;;11.63;7.20;;;18.40;83.60;;;;;;5015206;28;20502;-69
2023/09/23 00:19:56;;;;;;;10.98;7.82;;;18.40;83.80;;;;;;5015219;28;20077;-69
2023/09/23 00:22:22;;;;;;;14.52;9.18;;;18.30;83.80;;;;;;5015124;28;20121;-69
2023/09/23 00:24:50;;;;;;;16.38;10.02;;;18.30;83.90;;;;;;5015128;28;20097;-69
2023/09/23 00:27:17;;;;;;;13.13;8.30;;;18.30;84.00;;;;;;5015098;28;20038;-69
2023/09/23 00:29:44;;;;;;;14.20;7.93;;;18.30;84.00;;;;;;5015078;28;20034;-69
2023/09/23 00:32:12;;;;;;;11.93;8.00;;;18.30;84.00;;;;;;4997808;28;20448;-69
2023/09/23 00:34:39;;;;;;;11.60;7.85;;;18.20;84.00;;;;;;5015318;28;20105;-69
2023/09/23 00:37:08;;;;;;;14.48;9.68;;;18.20;84.10;;;;;;5015033;28;20122;-69
2023/09/23 00:39:42;;;;;;;14.88;9.15;;;18.20;84.10;;;;;;5014971;28;20469;-69
2023/09/23 00:42:12;;;;;;;13.73;8.45;;;18.20;84.20;;;;;;5015042;28;20029;-69
2023/09/23 00:44:41;;;;;;;14.25;8.65;;;18.20;84.20;;;;;;5015468;28;20033;-69
2023/09/23 00:47:09;;;;;;;14.18;8.20;;;18.20;84.20;;;;;;5015235;28;20037;-69
2023/09/23 00:49:39;;;;;;;22.25;11.30;;;18.20;84.10;;;;;;5014926;28;20040;-69
2023/09/23 00:52:06;;;;;;;18.88;10.43;;;18.20;84.10;;;;;;5014903;28;20156;-70
2023/09/23 00:54:36;;;;;;;21.77;11.82;;;18.20;84.00;;;;;;5015123;28;20034;-69
2023/09/23 00:57:06;;;;;;;14.82;9.82;;;18.10;84.10;;;;;;4998083;28;20033;-69
2023/09/23 00:59:35;;;;;;;16.40;9.57;;;18.10;84.20;;;;;;5014791;28;20026;-69
2023/09/23 01:02:05;;;;;;;13.40;8.90;;;18.10;84.20;;;;;;5016218;28;20463;-69
2023/09/23 01:04:31;;;;;;;16.10;9.93;;;18.10;84.20;;;;;;5018521;28;20041;-69
2023/09/23 01:07:00;;;;;;;15.32;9.60;;;18.00;84.20;;;;;;5018389;28;20060;-69
2023/09/23 01:09:29;;;;;;;15.30;9.30;;;18.00;84.20;;;;;;5018232;28;20036;-69
2023/09/23 01:11:56;;;;;;;14.45;9.32;;;18.00;84.30;;;;;;5018182;28;20030;-69
2023/09/23 01:14:22;;;;;;;13.48;9.10;;;18.00;84.30;;;;;;5017858;28;20065;-69
2023/09/23 01:16:49;;;;;;;15.43;9.63;;;18.00;84.30;;;;;;5018123;28;20109;-69
2023/09/23 01:19:15;;;;;;;14.73;8.70;;;18.00;84.30;;;;;;5018028;28;20352;-69
2023/09/23 01:21:41;;;;;;;15.45;9.63;;;18.00;84.20;;;;;;5018101;28;20026;-69
2023/09/23 01:24:07;;;;;;;16.92;9.20;;;18.00;84.20;;;;;;5018521;28;20022;-69
2023/09/23 01:26:34;;;;;;;13.18;8.68;;;18.00;84.20;;;;;;5018305;28;20033;-69
2023/09/23 01:29:07;;;;;;;15.23;9.15;;;18.00;84.10;;;;;;5018520;28;20034;-69
2023/09/23 01:31:35;;;;;;;18.83;11.93;;;18.00;84.10;;;;;;5017952;28;20535;-69
2023/09/23 01:34:01;;;;;;;13.50;8.65;;;17.90;84.10;;;;;;5018067;28;20455;-69
2023/09/23 01:36:27;;;;;;;14.55;9.32;;;17.90;84.10;;;;;;5000490;28;20029;-69
2023/09/23 01:38:53;;;;;;;14.27;9.35;;;17.90;84.20;;;;;;5018300;28;20462;-69
2023/09/23 01:41:19;;;;;;;14.90;9.10;;;17.90;84.10;;;;;;5017751;28;20022;-69
2023/09/23 01:43:45;;;;;;;17.98;12.57;;;17.80;84.10;;;;;;5017960;28;20026;-69
2023/09/23 01:46:11;;;;;;;15.43;10.07;;;17.80;84.10;;;;;;5017665;28;20447;-69
2023/09/23 01:48:38;;;;;;;13.52;9.35;;;17.70;84.10;;;;;;5017591;28;20455;-69
2023/09/23 01:51:06;;;;;;;15.57;10.90;;;17.60;84.10;;;;;;5017762;28;20014;-69
2023/09/23 01:53:32;;;;;;;19.70;13.32;;;17.70;84.20;;;;;;5017671;28;20037;-69
2023/09/23 01:55:58;;;;;;;17.95;11.98;;;17.60;84.30;;;;;;5017447;28;20022;-69
2023/09/23 01:58:24;;;;;;;20.83;12.35;;;17.60;84.20;;;;;;5000168;28;20169;-69
2023/09/23 02:00:52;;;;;;;20.95;12.32;;;17.60;84.20;;;;;;5017298;28;20033;-69
2023/09/23 02:03:18;;;;;;;20.63;12.32;;;17.50;84.30;;;;;;5017191;28;20029;-69
2023/09/23 02:05:46;;;;;;;18.80;12.23;;;17.60;84.30;;;;;;5017285;28;20025;-69
2023/09/23 02:08:12;;;;;;;21.02;10.98;;;17.50;84.50;;;;;;5017200;28;20045;-69
2023/09/23 02:10:42;;;;;;;19.60;12.73;;;17.50;84.40;;;;;;5017697;28;20428;-69
2023/09/23 02:13:08;;;;;;;17.02;10.40;;;17.50;84.50;;;;;;5016461;28;20407;-69
2023/09/23 02:15:34;;;;;;;16.58;10.65;;;17.50;84.40;;;;;;5016812;28;20079;-69
2023/09/23 02:18:04;;;;;;;16.83;10.85;;;17.50;84.50;;;;;;5017203;28;20079;-70
2023/09/23 02:20:30;;;;;;;16.38;10.77;;;17.50;84.50;;;;;;5017250;28;20470;-69
2023/09/23 02:22:56;;;;;;;13.73;9.57;;;17.60;84.50;;;;;;5017136;28;20122;-69
2023/09/23 02:25:26;;;;;;;19.55;9.90;;;17.50;84.50;;;;;;4999660;28;20026;-69
2023/09/23 02:27:53;;;;;;;14.00;9.20;;;17.50;84.50;;;;;;5017112;28;20071;-70
2023/09/23 02:30:19;;;;;;;13.25;8.85;;;17.50;84.50;;;;;;4999477;28;20075;-70
2023/09/23 02:32:46;;;;;;;20.90;11.95;;;17.50;84.50;;;;;;5016778;28;20032;-70
2023/09/23 02:35:15;;;;;;;15.88;10.23;;;17.50;84.60;;;;;;5016872;28;20029;-69
2023/09/23 02:37:46;;;;;;;15.13;10.77;;;17.50;84.50;;;;;;5016815;28;20363;-70
2023/09/23 02:40:14;;;;;;;11.40;8.23;;;17.40;84.60;;;;;;5017203;28;20348;-69
2023/09/23 02:42:42;;;;;;;14.27;9.52;;;17.40;84.60;;;;;;4999302;28;20447;-69
2023/09/23 02:45:13;;;;;;;13.13;9.10;;;17.40;84.60;;;;;;4999399;28;20080;-69
2023/09/23 02:47:41;;;;;;;14.82;9.07;;;17.50;84.70;;;;;;5016823;28;20033;-69
2023/09/23 02:50:17;;;;;;;16.65;10.50;;;17.40;84.50;;;;;;5016357;28;20530;-69
2023/09/23 02:52:44;;;;;;;16.35;9.98;;;17.40;84.50;;;;;;5016370;28;20041;-69
2023/09/23 02:55:12;;;;;;;17.95;9.95;;;17.40;84.60;;;;;;5016261;28;20022;-70
2023/09/23 02:57:40;;;;;;;13.77;9.15;;;17.40;84.60;;;;;;5016153;28;20424;-69
2023/09/23 03:00:29;;;;;;;14.73;9.32;;;17.40;84.60;;;;;;5016228;28;20029;-69
2023/09/23 03:03:02;;;;;;;21.27;10.93;;;17.40;84.50;;;;;;5016347;28;20034;-69
2023/09/23 03:05:38;;;;;;;12.70;8.30;;;17.40;84.60;;;;;;5016191;28;20026;-70
2023/09/23 03:08:07;;;;;;;15.80;9.57;;;17.30;84.50;;;;;;5016127;28;20030;-69
2023/09/23 03:10:39;;;;;;;15.02;8.30;;;17.40;84.60;;;;;;5016361;28;20450;-69
2023/09/23 03:13:07;;;;;;;12.05;8.32;;;17.40;84.60;;;;;;5016294;28;20100;-69
2023/09/23 03:15:41;;;;;;;14.25;8.50;;;17.40;84.60;;;;;;5015650;28;20388;-69
2023/09/23 03:18:07;;;;;;;15.98;8.38;;;17.40;84.60;;;;;;5015951;28;20030;-70
2023/09/23 03:20:36;;;;;;;12.75;8.00;;;17.40;84.70;;;;;;5016199;28;20076;-69
2023/09/23 03:23:03;;;;;;;11.93;7.93;;;17.40;84.70;;;;;;5016363;28;20026;-69
2023/09/23 03:25:30;;;;;;;10.88;8.02;;;17.40;84.70;;;;;;5015803;28;20026;-69
2023/09/23 03:27:57;;;;;;;12.80;8.32;;;17.40;84.60;;;;;;5015818;28;20033;-69
2023/09/23 03:30:23;;;;;;;11.77;7.45;;;17.40;84.60;;;;;;5015718;28;20367;-69
2023/09/23 03:32:49;;;;;;;12.70;7.75;;;17.40;84.60;;;;;;5015770;28;20021;-69
2023/09/23 03:35:20;;;;;;;11.18;6.57;;;17.40;84.60;;;;;;5015676;28;20040;-70
2023/09/23 03:37:49;;;;;;;12.88;7.25;;;17.40;84.60;;;;;;5015889;28;20034;-69
2023/09/23 03:40:27;;;;;;;11.13;6.32;;;17.40;84.50;;;;;;5016389;28;20041;-69
2023/09/23 03:42:54;;;;;;;11.48;5.63;;;17.40;84.40;;;;;;5015940;28;20041;-69
2023/09/23 03:45:20;;;;;;;11.57;5.43;;;17.40;84.40;;;;;;5015825;28;20037;-69
2023/09/23 03:47:46;;;;;;;8.32;4.68;;;17.40;84.20;;;;;;5015562;28;20030;-69
2023/09/23 03:50:15;;;;;;;6.30;4.60;;;17.40;84.20;;;;;;5015548;28;20034;-69
2023/09/23 03:52:43;;;;;;;6.95;4.68;;;17.40;84.20;;;;;;5015496;28;20110;-69
2023/09/23 03:55:12;;;;;;;7.18;4.53;;;17.40;84.20;;;;;;5016234;28;20034;-70
2023/09/23 03:57:38;;;;;;;5.43;3.90;;;17.40;84.10;;;;;;5015309;28;20022;-70
2023/09/23 04:00:27;;;;;;;6.72;3.58;;;17.40;84.00;;;;;;5015347;28;20467;-69
2023/09/23 04:02:54;;;;;;;8.65;4.10;;;17.40;84.00;;;;;;5015941;28;20432;-69
2023/09/23 04:05:23;;;;;;;5.50;3.47;;;17.40;83.70;;;;;;4998290;28;20025;-70
2023/09/23 04:07:50;;;;;;;5.60;3.00;;;17.40;83.60;;;;;;5015612;28;20033;-69
2023/09/23 04:10:23;;;;;;;5.82;2.92;;;17.40;83.40;;;;;;5015337;28;20063;-69
2023/09/23 04:12:53;;;;;;;5.67;2.93;;;17.40;83.10;;;;;;5015337;28;20034;-69
2023/09/23 04:15:22;;;;;;;5.03;2.70;;;17.30;82.80;;;;;;4994555;28;20050;-69
2023/09/23 04:17:48;;;;;;;5.47;2.70;;;17.30;82.50;;;;;;4995510;28;20125;-69
2023/09/23 04:20:17;;;;;;;3.65;2.35;;;17.30;82.10;;;;;;4994657;28;20027;-69
2023/09/23 04:22:48;;;;;;;4.95;2.25;;;17.30;82.10;;;;;;4995869;28;20030;-69
2023/09/23 04:25:14;;;;;;;6.07;2.60;;;17.30;82.10;;;;;;4995468;28;20037;-69
2023/09/23 04:27:40;;;;;;;3.50;2.38;;;17.20;81.50;;;;;;4994543;28;20456;-69
2023/09/23 04:30:12;;;;;;;6.13;2.83;;;17.30;81.90;;;;;;4995563;28;20475;-69
2023/09/23 04:32:42;;;;;;;4.25;2.33;;;17.30;81.60;;;;;;4996340;28;20041;-69
2023/09/23 04:35:09;;;;;;;4.45;2.22;;;17.20;81.30;;;;;;4995942;28;20057;-69
2023/09/23 04:37:39;;;;;;;4.00;2.40;;;17.20;81.30;;;;;;4997841;28;20050;-69
2023/09/23 04:40:10;;;;;;;5.57;2.40;;;17.30;81.10;;;;;;4999201;28;20022;-69
2023/09/23 04:42:39;;;;;;;3.97;2.17;;;17.20;80.90;;;;;;4999296;28;20114;-69
2023/09/23 04:45:09;;;;;;;2.75;2.10;;;17.30;80.70;;;;;;4999589;28;20018;-69
2023/09/23 04:47:52;;;;;;;4.38;2.38;;;17.20;80.80;;;;;;4999655;28;20506;-69
2023/09/23 04:50:23;;;;;;;4.03;2.30;;;17.20;80.90;;;;;;4999728;28;20026;-69
2023/09/23 04:52:51;;;;;;;3.65;2.08;;;17.10;80.90;;;;;;4998877;28;20030;-69
2023/09/23 04:55:22;;;;;;;5.70;2.20;;;17.10;81.00;;;;;;4998927;28;20054;-69
2023/09/23 04:57:55;;;;;;;3.50;2.22;;;17.10;81.00;;;;;;4998701;28;20519;-69
2023/09/23 05:00:26;;;;;;;3.38;2.00;;;17.10;80.80;;;;;;4999694;28;20092;-71
2023/09/23 05:02:55;;;;;;;4.22;2.40;;;17.10;80.70;;;;;;4998794;28;20052;-69
2023/09/23 05:05:21;;;;;;;3.10;2.20;;;17.00;80.70;;;;;;4998899;28;20417;-69
2023/09/23 05:07:47;;;;;;;2.35;2.13;;;17.10;80.70;;;;;;4999300;28;20038;-69
2023/09/23 05:10:13;;;;;;;5.32;2.30;;;17.10;80.80;;;;;;4998737;28;20105;-69
2023/09/23 05:12:41;;;;;;;3.45;2.42;;;17.10;80.60;;;;;;4998974;28;20448;-69
2023/09/23 05:15:10;;;;;;;4.88;2.78;;;17.10;80.70;;;;;;4998594;28;20097;-69
2023/09/23 05:17:37;;;;;;;3.72;2.30;;;17.10;80.70;;;;;;4998526;28;20444;-69
2023/09/23 05:20:15;;;;;;;3.90;2.20;;;17.10;80.60;;;;;;4998168;28;20456;-69
2023/09/23 05:22:41;;;;;;;3.47;2.33;;;17.10;80.60;;;;;;4998540;28;20050;-69
2023/09/23 05:25:11;;;;;;;5.20;1.90;;;17.10;80.60;;;;;;4998601;28;20057;-69
2023/09/23 05:27:43;;;;;;;3.78;2.20;;;17.10;80.70;;;;;;4998607;28;20041;-69
2023/09/23 05:30:15;;;;;;;3.33;2.35;;;17.10;80.70;;;;;;4997344;28;20471;-69
2023/09/23 05:32:42;;;;;;;3.60;2.10;;;17.20;80.80;;;;;;4997305;28;20038;-69
2023/09/23 05:35:14;;;;;;;4.55;2.30;;;17.60;80.80;;;;;;4998415;28;20038;-69
2023/09/23 05:37:41;;;;;;;6.93;2.40;;;18.20;80.30;;;;;;4997138;28;20475;-69
2023/09/23 05:40:23;;;;;;;4.22;2.50;;;18.90;79.40;;;;;;4998042;28;20376;-69
2023/09/23 05:42:50;;;;;;;2.75;1.92;;;19.60;78.30;;;;;;4998862;28;20190;-69
2023/09/23 05:45:17;;;;;;;3.03;2.00;;;20.30;76.80;;;;;;4997915;28;20097;-70
2023/09/23 05:47:45;;;;;;;4.25;2.30;;;20.70;76.00;;;;;;4996077;28;20376;-70
2023/09/23 05:50:11;;;;;;;2.92;2.05;;;21.30;75.20;;;;;;4997472;28;20034;-71
2023/09/23 05:52:37;;;;;;;3.10;2.20;;;21.90;73.80;;;;;;4997856;28;20145;-71
2023/09/23 05:55:04;;;;;;;4.68;2.55;;;21.90;72.40;;;;;;4997016;28;20117;-69
2023/09/23 05:57:30;;;;;;;5.45;2.60;;;21.70;72.00;;;;;;4997438;28;20440;-69
2023/09/23 05:59:56;;;;;;;6.25;2.90;;;21.30;72.30;;;;;;4996597;28;20022;-68
2023/09/23 06:02:22;;;;;;;3.90;2.95;;;20.90;72.90;;;;;;4997608;28;20321;-68
2023/09/23 06:04:48;;;;;;;3.53;2.30;;;20.60;73.40;;;;;;4996763;28;20067;-64
2023/09/23 06:07:18;;;;;;;6.43;3.17;;;20.40;73.90;;;;;;4997338;28;20084;-70
2023/09/23 06:09:44;;;;;;;6.18;2.88;;;20.20;74.00;;;;;;4997575;28;20074;-68
2023/09/23 06:12:11;;;;;;;5.85;2.78;;;20.10;74.50;;;;;;4997551;28;20069;-70
2023/09/23 06:14:37;;;;;;;8.75;3.30;;;20.00;74.70;;;;;;4997209;28;20057;-70
2023/09/23 06:17:02;;;;;;;12.90;3.33;;;19.90;75.00;;;;;;4997460;28;20042;-69
2023/09/23 06:19:28;;;;;;;8.23;3.30;;;20.30;75.00;;;;;;4997678;28;20030;-70
2023/09/23 06:21:55;;;;;;;10.10;3.97;;;21.30;74.70;;;;;;4997413;28;20022;-70
2023/09/23 06:24:21;;;;;;;10.75;3.80;;;22.90;72.20;;;;;;4997236;28;20445;-70
2023/09/23 06:26:47;;;;;;;9.55;3.90;;;24.60;69.10;;;;;;4997574;28;20032;-70
2023/09/23 06:29:16;;;;;;;9.05;4.00;;;26.00;65.80;;;;;;4992738;28;20030;-70
2023/09/23 06:31:45;;;;;;;10.85;4.10;;;27.20;62.80;;;;;;4997962;28;20109;-71
2023/09/23 06:34:11;;;;;;;10.18;3.85;;;28.20;59.60;;;;;;4997378;28;20037;-70
2023/09/23 06:36:37;;;;;;;10.85;3.80;;;29.10;57.20;;;;;;4997044;28;20022;-70
2023/09/23 06:39:03;;;;;;;6.93;3.30;;;29.70;54.00;;;;;;4997505;28;20030;-70
2023/09/23 06:41:30;;;;;;;6.57;3.40;;;30.10;53.10;;;;;;4997029;28;20033;-70
2023/09/23 06:43:56;;;;;;;8.07;3.60;;;30.80;52.60;;;;;;4996891;28;20388;-70
2023/09/23 06:46:23;;;;;;;6.93;3.63;;;31.40;51.60;;;;;;4996937;28;20014;-70
2023/09/23 06:48:49;;;;;;;8.23;4.03;;;31.90;49.90;;;;;;4997348;28;20030;-70
2023/09/23 06:51:15;;;;;;;7.60;4.05;;;32.10;48.30;;;;;;4997057;28;20313;-69
2023/09/23 06:53:41;;;;;;;6.03;3.90;;;31.80;48.10;;;;;;4997144;28;20042;-69
2023/09/23 06:56:07;;;;;;;8.68;4.15;;;30.80;49.30;;;;;;4996644;28;20087;-69
2023/09/23 06:58:33;;;;;;;10.15;4.72;;;29.60;50.90;;;;;;4996635;28;20038;-69
2023/09/23 07:00:59;;;;;;;10.32;4.90;;;28.70;52.60;;;;;;4996408;28;20023;-70
2023/09/23 07:03:26;;;;;;;6.95;4.40;;;28.50;54.20;;;;;;4997010;28;20348;-70
2023/09/23 07:05:52;;;;;;;10.35;5.53;;;29.20;54.50;;;;;;4996774;28;20022;-70
2023/09/23 07:08:18;;;;;;;7.95;4.88;;;30.30;53.70;;;;;;4996486;28;20058;-69
2023/09/23 07:10:44;;;;;;;9.52;5.25;;;31.40;52.00;;;;;;4996563;28;20125;-69
2023/09/23 07:13:10;;;;;;;10.82;5.68;;;32.50;50.80;;;;;;4996948;28;20030;-69
2023/09/23 07:15:38;;;;;;;10.85;6.32;;;33.50;49.30;;;;;;5011230;28;20068;-70
2023/09/23 07:18:05;;;;;;;14.27;7.53;;;34.40;47.80;;;;;;5015973;28;20109;-70
2023/09/23 07:20:32;;;;;;;12.77;6.63;;;34.90;46.50;;;;;;5016017;28;20341;-70
2023/09/23 07:22:59;;;;;;;12.38;6.53;;;35.20;45.70;;;;;;4982430;28;20478;-70
2023/09/23 07:25:29;;;;;;;16.38;6.95;;;35.40;45.40;;;;;;5016168;28;20072;-70
2023/09/23 07:27:59;;;;;;;13.65;6.57;;;35.60;45.10;;;;;;5015869;28;20104;-70
2023/09/23 07:30:25;;;;;;;10.05;5.90;;;35.80;44.90;;;;;;5015774;28;20069;-70
2023/09/23 07:32:51;;;;;;;9.40;5.25;;;35.90;44.30;;;;;;5015870;28;20029;-69
2023/09/23 07:35:17;;;;;;;9.15;5.20;;;36.10;44.30;;;;;;5015907;28;20026;-70
2023/09/23 07:37:44;;;;;;;6.93;4.47;;;35.90;43.90;;;;;;5015880;28;20034;-69
2023/09/23 07:40:10;;;;;;;6.15;4.20;;;35.60;44.60;;;;;;5015725;28;20084;-70
2023/09/23 07:42:36;;;;;;;7.68;4.10;;;35.60;43.90;;;;;;5015694;28;20026;-70
2023/09/23 07:45:03;;;;;;;7.85;3.70;;;35.50;42.70;;;;;;5015602;28;20025;-70
2023/09/23 07:47:29;;;;;;;9.40;3.70;;;35.70;42.50;;;;;;5015575;28;20333;-69
2023/09/23 07:49:55;;;;;;;8.23;3.72;;;35.40;40.60;;;;;;5015614;28;20037;-69
2023/09/23 07:52:21;;;;;;;6.25;3.50;;;35.00;40.70;;;;;;4999061;28;20025;-69
2023/09/23 07:54:48;;;;;;;5.35;3.35;;;34.80;41.00;;;;;;5015495;28;20030;-69
2023/09/23 07:57:14;;;;;;;5.03;3.03;;;34.90;41.20;;;;;;5015434;28;20057;-69
2023/09/23 07:59:42;;;;;;;8.27;3.28;;;35.20;41.50;;;;;;5015675;28;20030;-70
2023/09/23 08:02:08;;;;;;;5.55;3.15;;;35.60;41.30;;;;;;5015385;28;20109;-70
2023/09/23 08:04:51;;;;;;;;;;;;;;;;;;;;;
2023/09/23 08:07:17;;;;;;;7.05;3.17;;;35.70;38.80;;;;;;4933638;28;20034;-68
2023/09/23 08:09:43;;;;;;;5.90;3.20;;;35.50;38.60;;;;;;5015271;28;20041;-68
2023/09/23 08:12:10;;;;;;;5.63;2.83;;;35.20;37.90;;;;;;5028107;28;20033;-69
2023/09/23 08:14:36;;;;;;;6.30;3.10;;;35.00;37.90;;;;;;5019091;28;20081;-68
2023/09/23 08:17:02;;;;;;;6.25;3.20;;;34.80;38.40;;;;;;5019549;28;20105;-69
2023/09/23 08:19:29;;;;;;;6.65;3.35;;;34.70;38.30;;;;;;5025409;28;20041;-68
2023/09/23 08:21:55;;;;;;;9.88;3.83;;;34.40;38.00;;;;;;5033891;28;20447;-68
2023/09/23 08:24:21;;;;;;;5.72;2.92;;;34.00;38.70;;;;;;5019873;28;20030;-68
2023/09/23 08:26:48;;;;;;;6.25;3.13;;;33.40;39.30;;;;;;5018289;28;20026;-68
2023/09/23 08:29:14;;;;;;;5.55;3.10;;;32.50;40.50;;;;;;5017892;28;20034;-68
2023/09/23 08:31:40;;;;;;;8.30;3.67;;;31.70;42.20;;;;;;5019119;28;20029;-68
2023/09/23 08:34:09;;;;;;;7.63;3.78;;;30.90;43.80;;;;;;5019534;28;20087;-68
2023/09/23 08:36:38;;;;;;;8.73;3.75;;;30.20;45.50;;;;;;5019106;28;20180;-68
2023/09/23 08:39:09;;;;;;;6.45;3.50;;;29.40;47.30;;;;;;5018908;28;20026;-69
2023/09/23 08:41:36;;;;;;;7.38;3.35;;;28.90;48.50;;;;;;5018812;28;20025;-68
2023/09/23 08:44:05;;;;;;;6.60;3.65;;;28.40;49.40;;;;;;5018656;28;20057;-69
2023/09/23 08:46:32;;;;;;;9.25;4.18;;;28.10;51.50;;;;;;5019114;28;20029;-68
2023/09/23 08:49:03;;;;;;;9.40;4.03;;;27.70;52.20;;;;;;5018626;28;20030;-68
2023/09/23 08:51:30;;;;;;;7.53;3.75;;;27.50;53.10;;;;;;5018590;28;20022;-69
2023/09/23 08:53:56;;;;;;;7.03;3.60;;;27.30;53.60;;;;;;5018485;28;20113;-69
2023/09/23 08:56:22;;;;;;;7.82;3.20;;;27.20;53.90;;;;;;5018523;28;20032;-69
2023/09/23 08:58:49;;;;;;;9.43;4.07;;;27.00;54.40;;;;;;5018546;28;20030;-68
2023/09/23 09:01:17;;;;;;;8.68;3.90;;;27.00;54.50;;;;;;5018563;28;20113;-69
2023/09/23 09:03:44;;;;;;;8.23;3.50;;;26.70;53.60;;;;;;5018707;28;20077;-68
2023/09/23 09:06:17;;;;;;;8.50;3.88;;;26.40;54.80;;;;;;5016698;28;20022;-69
2023/09/23 09:08:43;;;;;;;;;;;26.40;55.20;;;;;;5017073;28;20571;-69
2023/09/23 09:11:09;;;;;;;8.10;3.30;;;26.40;55.00;;;;;;5017848;28;19906;-68
2023/09/23 09:13:36;;;;;;;9.63;3.42;;;26.30;54.60;;;;;;5018848;28;20032;-68
2023/09/23 09:16:11;;;;;;;7.93;3.90;;;26.30;55.00;;;;;;5018004;28;20379;-69
2023/09/23 09:18:37;;;;;;;7.75;3.40;;;26.20;54.20;;;;;;5018500;28;20053;-68
2023/09/23 09:21:08;;;;;;;10.77;4.20;;;26.00;55.40;;;;;;5018471;28;20026;-68
2023/09/23 09:23:36;;;;;;;7.80;3.67;;;26.10;55.70;;;;;;5017879;28;20034;-68
2023/09/23 09:26:04;;;;;;;6.50;3.40;;;26.10;55.80;;;;;;5018342;28;20034;-68
2023/09/23 09:28:30;;;;;;;8.80;3.50;;;26.10;55.10;;;;;;5017965;28;20061;-68
2023/09/23 09:30:58;;;;;;;8.70;3.70;;;26.10;55.20;;;;;;5018043;28;20070;-68
2023/09/23 09:33:29;;;;;;;7.43;3.53;;;26.00;55.70;;;;;;5017918;28;20068;-68
2023/09/23 09:35:56;;;;;;;8.60;3.75;;;26.10;55.90;;;;;;5017822;28;20367;-68
2023/09/23 09:38:25;;;;;;;9.65;4.32;;;26.10;55.90;;;;;;5017793;28;20062;-68
2023/09/23 09:41:00;;;;;;;7.30;3.65;;;26.10;55.50;;;;;;5017781;28;20030;-68
2023/09/23 09:43:28;;;;;;;8.27;4.00;;;25.90;55.80;;;;;;5017986;28;20036;-69
2023/09/23 09:45:55;;;;;;;8.73;3.88;;;26.00;56.30;;;;;;5017649;28;20038;-68
2023/09/23 09:48:28;;;;;;;7.40;3.70;;;26.10;56.50;;;;;;5017636;28;20105;-68
2023/09/23 09:50:55;;;;;;;8.80;3.90;;;26.10;56.30;;;;;;5017682;28;20033;-68
2023/09/23 09:53:24;;;;;;;7.93;4.13;;;26.30;56.50;;;;;;5017795;28;20080;-68
2023/09/23 09:55:51;;;;;;;7.78;3.55;;;26.40;56.30;;;;;;5017525;28;20144;-68
2023/09/23 09:58:17;;;;;;;9.05;3.97;;;26.30;56.30;;;;;;5017973;28;20317;-68
2023/09/23 10:00:47;;;;;;;9.02;4.10;;;26.40;56.50;;;;;;5017594;28;20034;-68
2023/09/23 10:03:13;;;;;;;9.00;4.10;;;26.30;56.70;;;;;;5017330;28;20486;-68
2023/09/23 10:05:47;;;;;;;6.63;4.15;;;26.20;56.90;;;;;;5017437;28;20030;-68
2023/09/23 10:08:24;;;;;;;6.95;3.80;;;26.00;57.60;;;;;;5017557;28;20022;-68
2023/09/23 10:10:58;;;;;;;6.97;3.70;;;26.00;58.00;;;;;;5015876;28;20038;-68
2023/09/23 10:13:29;;;;;;;8.88;4.43;;;26.10;58.00;;;;;;5017632;28;20117;-68
2023/09/23 10:16:19;;;;;;;9.52;3.55;;;26.20;57.70;;;;;;5016812;28;20058;-68
2023/09/23 10:18:54;;;;;;;8.50;3.20;;;26.30;56.20;;;;;;5016707;28;20044;-68
2023/09/23 10:21:25;;;;;;;7.88;3.22;;;26.20;54.70;;;;;;4999260;28;20041;-68
2023/09/23 10:23:56;;;;;;;5.28;3.28;;;26.20;54.90;;;;;;5016924;28;20444;-68
2023/09/23 10:26:23;;;;;;;5.75;2.88;;;26.20;55.80;;;;;;5016830;28;20053;-68
2023/09/23 10:29:01;;;;;;;8.85;3.60;;;26.40;55.70;;;;;;4999616;28;20407;-68
2023/09/23 10:31:29;;;;;;;5.68;2.70;;;26.40;54.00;;;;;;5017112;28;20033;-68
2023/09/23 10:33:55;;;;;;;8.27;3.58;;;26.40;55.20;;;;;;4999046;28;20045;-68
2023/09/23 10:36:22;;;;;;;7.45;3.30;;;26.40;55.40;;;;;;5016886;28;20068;-68
2023/09/23 10:38:49;;;;;;;4.75;2.63;;;26.30;55.10;;;;;;5016656;28;20421;-68
2023/09/23 10:41:15;;;;;;;5.80;2.78;;;26.20;54.20;;;;;;5016666;28;20026;-68
2023/09/23 10:43:41;;;;;;;9.68;3.05;;;26.20;54.10;;;;;;5016606;28;20113;-68
2023/09/23 10:46:07;;;;;;;5.30;3.00;;;26.10;53.50;;;;;;5016861;28;20153;-68
2023/09/23 10:48:34;;;;;;;7.00;2.85;;;26.00;52.60;;;;;;5017069;28;20033;-68
2023/09/23 10:51:01;;;;;;;6.07;2.60;;;26.00;53.20;;;;;;5016789;28;20034;-68
2023/09/23 10:53:30;;;;;;;4.13;2.60;;;26.10;53.20;;;;;;5016734;28;20053;-68
2023/09/23 10:56:01;;;;;;;5.22;2.80;;;26.10;53.50;;;;;;5016972;28;20042;-68
2023/09/23 10:58:31;;;;;;;5.05;2.63;;;26.10;53.50;;;;;;5016273;28;20084;-68
2023/09/23 11:00:58;;;;;;;5.68;2.55;;;26.00;53.70;;;;;;5016312;28;20040;-68
2023/09/23 11:03:24;;;;;;;4.88;2.40;;;25.90;53.90;;;;;;5016638;28;20352;-70
2023/09/23 11:05:51;;;;;;;7.07;2.78;;;25.90;54.10;;;;;;5016192;28;20022;-69
2023/09/23 11:08:20;;;;;;;6.65;2.78;;;25.90;54.00;;;;;;5016121;28;20363;-69
2023/09/23 11:10:48;;;;;;;4.88;2.25;;;25.70;52.70;;;;;;5016159;28;20029;-67
2023/09/23 11:13:15;;;;;;;4.75;2.38;;;25.50;53.40;;;;;;5016015;28;20030;-67
2023/09/23 11:15:44;;;;;;;5.22;2.53;;;25.40;53.40;;;;;;5015871;28;20076;-69
2023/09/23 11:18:15;;;;;;;8.05;2.88;;;25.40;53.60;;;;;;5016206;28;20056;-69
2023/09/23 11:20:44;;;;;;;6.82;2.60;;;25.50;53.40;;;;;;5016318;28;20371;-69
2023/09/23 11:23:10;;;;;;;5.18;2.28;;;25.70;52.90;;;;;;5015898;28;20025;-69
2023/09/23 11:25:44;;;;;;;4.40;2.28;;;25.90;52.90;;;;;;5016159;28;20025;-67
2023/09/23 11:28:24;;;;;;;3.80;2.03;;;26.00;52.50;;;;;;4998588;28;20022;-67
2023/09/23 11:30:53;;;;;;;4.88;2.33;;;26.20;52.50;;;;;;5015809;28;20472;-67
2023/09/23 11:33:20;;;;;;;3.80;2.13;;;26.50;52.20;;;;;;5015735;28;20030;-67
2023/09/23 11:35:47;;;;;;;3.60;2.17;;;26.80;51.80;;;;;;5015700;28;20030;-69
2023/09/23 11:38:16;;;;;;;6.15;2.53;;;27.10;51.00;;;;;;5015903;28;20037;-67
2023/09/23 11:40:43;;;;;;;4.05;2.70;;;27.30;49.90;;;;;;5015930;28;20022;-68
2023/09/23 11:43:13;;;;;;;6.75;2.70;;;27.40;50.20;;;;;;5016139;28;20033;-68
2023/09/23 11:45:41;;;;;;;6.72;2.55;;;27.50;50.40;;;;;;5015164;28;20022;-68
2023/09/23 11:48:08;;;;;;;4.40;2.60;;;27.70;50.40;;;;;;5015182;28;20026;-68
2023/09/23 11:50:35;;;;;;;6.40;2.38;;;27.90;50.30;;;;;;5015820;28;20407;-68
2023/09/23 11:53:02;;;;;;;6.00;2.47;;;27.90;50.10;;;;;;5015998;28;20026;-67
2023/09/23 11:55:29;;;;;;;3.72;2.53;;;27.90;49.60;;;;;;5015447;28;20095;-68
2023/09/23 11:57:57;;;;;;;4.65;2.70;;;27.80;50.00;;;;;;5015337;28;20061;-68
2023/09/23 12:00:25;;;;;;;4.82;2.60;;;27.60;50.40;;;;;;5015713;28;20044;-68
2023/09/23 12:02:51;;;;;;;7.95;2.53;;;27.50;50.60;;;;;;4998634;28;20018;-68
2023/09/23 12:05:17;;;;;;;6.57;2.95;;;27.40;50.80;;;;;;5015364;28;20026;-68
2023/09/23 12:07:44;;;;;;;6.15;2.67;;;27.20;50.90;;;;;;5015349;28;20022;-67
2023/09/23 12:10:13;;;;;;;6.95;3.05;;;27.10;51.40;;;;;;5015373;28;20026;-68
2023/09/23 12:12:40;;;;;;;9.00;3.30;;;27.00;52.00;;;;;;5015305;28;20032;-68
2023/09/23 12:15:08;;;;;;;6.40;3.33;;;27.00;52.50;;;;;;5014823;28;20065;-68
2023/09/23 12:17:36;;;;;;;7.90;3.40;;;26.90;52.30;;;;;;4998666;28;20068;-68
2023/09/23 12:20:03;;;;;;;4.90;3.03;;;26.60;52.80;;;;;;4997822;28;20125;-67
2023/09/23 12:22:29;;;;;;;7.63;2.90;;;26.40;53.50;;;;;;5015415;28;20018;-67
2023/09/23 12:24:56;;;;;;;5.07;2.88;;;26.30;53.80;;;;;;5015339;28;20474;-67
2023/09/23 12:27:22;;;;;;;4.55;2.80;;;26.10;54.20;;;;;;5016793;28;20463;-68
2023/09/23 12:29:48;;;;;;;7.32;2.80;;;26.00;54.60;;;;;;5027528;28;20160;-64
2023/09/23 12:32:14;;;;;;;4.10;2.70;;;25.90;54.80;;;;;;5033035;28;20033;-67
2023/09/23 12:34:40;;;;;;;5.03;3.00;;;25.90;55.00;;;;;;5034218;28;20033;-67
2023/09/23 12:37:06;;;;;;;6.50;3.30;;;25.90;55.10;;;;;;5032904;28;20631;-67
2023/09/23 12:39:32;;;;;;;9.15;3.25;;;25.90;54.80;;;;;;5034269;28;20136;-66
2023/09/23 12:41:58;;;;;;;5.47;3.13;;;25.80;55.00;;;;;;5034369;28;20362;-67
2023/09/23 12:44:24;;;;;;;5.32;2.90;;;25.70;55.30;;;;;;5034079;28;20101;-66
2023/09/23 12:46:50;;;;;;;6.03;3.38;;;25.60;55.30;;;;;;5019381;28;20117;-67